createdAt,value
2019-04-07T00:00:57.560Z,61.75
2019-04-07T00:03:26.695Z,62.23
2019-04-07T00:05:55.802Z,61.97
2019-04-07T00:08:25.302Z,64.19
2019-04-07T00:10:54.363Z,63.46
2019-04-07T00:13:23.456Z,63.25
2019-04-07T00:15:53.015Z,63.21
2019-04-07T00:18:22.930Z,63.53
2019-04-07T00:20:52.025Z,63.71
2019-04-07T00:23:21.499Z,63.78
2019-04-07T00:25:50.929Z,63.93
2019-04-07T00:28:20.498Z,63.82
2019-04-07T00:30:51.278Z,63.60
2019-04-07T00:33:20.692Z,63.36
2019-04-07T00:35:49.880Z,63.49
2019-04-07T00:38:19.422Z,63.38
2019-04-07T00:40:48.482Z,63.46
2019-04-07T00:43:17.584Z,63.45
2019-04-07T00:45:47.081Z,63.56
2019-04-07T00:48:16.824Z,63.36
2019-04-07T00:50:46.083Z,63.17
2019-04-07T00:53:15.652Z,63.01
2019-04-07T00:55:45.029Z,63.32
2019-04-07T00:58:14.726Z,63.28
2019-04-07T01:00:44.599Z,63.32
2019-04-07T01:03:13.720Z,63.36
2019-04-07T01:05:43.555Z,63.35
2019-04-07T01:08:13.070Z,63.33
2019-04-07T01:10:42.708Z,63.36
2019-04-07T01:13:11.924Z,63.74
2019-04-07T01:15:41.723Z,63.63
2019-04-07T01:18:10.772Z,63.66
2019-04-07T01:20:40.732Z,63.83
2019-04-07T01:23:10.626Z,64.01
2019-04-07T01:25:39.680Z,64.05
2019-04-07T01:28:08.767Z,64.24
2019-04-07T01:30:38.293Z,64.22
2019-04-07T01:33:07.639Z,64.12
2019-04-07T01:35:46.262Z,64.09
2019-04-07T01:38:07.836Z,64.08
2019-04-07T01:40:36.921Z,64.12
2019-04-07T01:43:23.107Z,64.07
2019-04-07T01:46:01.174Z,64.06
2019-04-07T01:48:48.508Z,64.42
2019-04-07T01:51:40.085Z,64.63
2019-04-07T01:54:27.154Z,64.74
2019-04-07T01:57:15.660Z,64.86
2019-04-07T02:00:07.244Z,64.66
2019-04-07T02:02:52.060Z,64.61
2019-04-07T02:05:38.561Z,64.69
2019-04-07T02:08:18.495Z,65.01
2019-04-07T02:11:25.090Z,65.49
2019-04-07T02:14:04.721Z,65.89
2019-04-07T02:16:41.997Z,69.23
2019-04-07T02:19:27.512Z,72.26
2019-04-07T02:22:31.644Z,72.70
2019-04-07T02:25:09.752Z,72.98
2019-04-07T02:27:54.559Z,71.23
2019-04-07T02:30:43.278Z,72.11
2019-04-07T02:33:30.914Z,71.32
2019-04-07T02:36:37.708Z,71.28
2019-04-07T02:39:24.907Z,69.97
2019-04-07T02:42:25.228Z,69.82
2019-04-07T02:45:28.449Z,69.08
2019-04-07T02:48:26.556Z,71.25
2019-04-07T02:51:03.143Z,70.24
2019-04-07T02:53:51.645Z,70.87
2019-04-07T02:56:38.081Z,70.15
2019-04-07T02:59:29.367Z,70.86
2019-04-07T03:02:17.876Z,70.89
2019-04-07T03:05:06.555Z,70.98
2019-04-07T03:07:55.001Z,69.32
2019-04-07T03:10:53.456Z,68.62
2019-04-07T03:13:44.293Z,69.10
2019-04-07T03:16:44.925Z,68.21
2019-04-07T03:19:23.387Z,67.95
2019-04-07T03:22:12.124Z,67.71
2019-04-07T03:25:07.128Z,67.62
2019-04-07T03:27:46.884Z,68.00
2019-04-07T03:30:32.636Z,67.71
2019-04-07T03:33:27.876Z,67.54
2019-04-07T03:36:20.487Z,67.63
2019-04-07T03:39:03.434Z,67.30
2019-04-07T03:41:57.607Z,67.22
2019-04-07T03:45:01.147Z,67.13
2019-04-07T03:47:54.985Z,67.15
2019-04-07T03:50:29.772Z,66.90
2019-04-07T03:53:16.047Z,66.74
2019-04-07T03:55:54.667Z,67.05
2019-04-07T03:58:41.262Z,67.00
2019-04-07T04:01:47.980Z,66.90
2019-04-07T04:04:36.263Z,67.09
2019-04-07T04:07:31.518Z,68.22
2019-04-07T04:10:15.976Z,67.62
2019-04-07T04:13:20.154Z,66.97
2019-04-07T04:15:59.403Z,68.67
2019-04-07T04:18:28.955Z,67.97
2019-04-07T04:20:58.025Z,67.58
2019-04-07T04:23:27.155Z,67.60
2019-04-07T04:25:57.492Z,67.35
2019-04-07T04:28:27.355Z,68.71
2019-04-07T04:30:56.764Z,68.74
2019-04-07T04:33:27.274Z,68.80
2019-04-07T04:35:56.519Z,69.27
2019-04-07T04:38:26.230Z,69.10
2019-04-07T04:40:55.684Z,68.77
2019-04-07T04:43:25.360Z,68.74
2019-04-07T04:45:54.713Z,70.30
2019-04-07T04:48:24.248Z,70.44
2019-04-07T04:50:53.302Z,71.45
2019-04-07T04:53:22.700Z,72.95
2019-04-07T04:55:53.437Z,73.42
2019-04-07T04:58:22.931Z,74.11
2019-04-07T05:00:52.390Z,73.01
2019-04-07T05:03:21.898Z,74.96
2019-04-07T05:05:51.243Z,73.37
2019-04-07T05:08:20.550Z,72.57
2019-04-07T05:10:50.921Z,72.02
2019-04-07T05:13:20.062Z,71.68
2019-04-07T05:15:49.192Z,71.38
2019-04-07T05:18:18.716Z,70.79
2019-04-07T05:20:47.777Z,70.54
2019-04-07T05:23:18.000Z,70.64
2019-04-07T05:25:48.135Z,70.89
2019-04-07T05:28:18.180Z,71.01
2019-04-07T05:30:48.057Z,71.70
2019-04-07T05:33:17.573Z,74.25
2019-04-07T05:35:46.660Z,75.46
2019-04-07T05:38:15.910Z,76.35
2019-04-07T05:40:45.277Z,76.50
2019-04-07T05:43:14.962Z,74.70
2019-04-07T05:45:44.155Z,72.92
2019-04-07T05:48:17.330Z,72.91
2019-04-07T05:50:44.912Z,72.61
2019-04-07T05:53:14.789Z,72.58
2019-04-07T05:55:43.836Z,71.80
2019-04-07T05:58:15.346Z,71.55
2019-04-07T06:00:46.965Z,70.71
2019-04-07T06:03:15.384Z,70.24
2019-04-07T06:05:49.177Z,69.70
2019-04-07T06:08:26.041Z,71.06
2019-04-07T06:10:46.278Z,69.86
2019-04-07T06:13:15.807Z,70.17
2019-04-07T06:15:45.695Z,70.78
2019-04-07T06:18:15.004Z,70.34
2019-04-07T06:20:46.361Z,68.24
2019-04-07T06:23:15.971Z,67.48
2019-04-07T06:25:46.165Z,67.15
2019-04-07T06:28:17.364Z,65.84
2019-04-07T06:30:47.471Z,65.10
2019-04-07T06:33:16.586Z,64.86
2019-04-07T06:35:47.350Z,64.20
2019-04-07T06:38:16.777Z,63.87
2019-04-07T06:40:46.006Z,63.61
2019-04-07T06:43:15.667Z,63.18
2019-04-07T06:45:55.047Z,62.12
2019-04-07T06:48:24.186Z,61.78
2019-04-07T06:51:11.087Z,61.95
2019-04-07T06:54:05.849Z,60.81
2019-04-07T06:57:12.337Z,60.03
2019-04-07T06:59:52.473Z,60.41
2019-04-07T07:02:37.998Z,61.32
2019-04-07T07:05:34.990Z,60.96
2019-04-07T07:08:25.683Z,60.85
2019-04-07T07:11:11.537Z,60.75
2019-04-07T07:14:04.214Z,59.96
2019-04-07T07:16:49.951Z,59.49
2019-04-07T07:19:41.259Z,61.05
2019-04-07T07:22:16.539Z,59.47
2019-04-07T07:24:47.260Z,59.12
2019-04-07T07:27:17.493Z,58.37
2019-04-07T07:29:47.713Z,58.31
2019-04-07T07:32:18.961Z,57.61
2019-04-07T07:34:48.068Z,57.24
2019-04-07T07:37:17.109Z,57.96
2019-04-07T07:39:47.049Z,58.65
2019-04-07T07:42:16.252Z,58.38
2019-04-07T07:44:45.773Z,59.34
2019-04-07T07:47:14.884Z,57.66
2019-04-07T07:49:43.979Z,57.22
2019-04-07T07:52:17.119Z,58.12
2019-04-07T07:54:46.096Z,56.91
2019-04-07T07:57:16.053Z,56.98
2019-04-07T07:59:46.337Z,56.89
2019-04-07T08:02:19.467Z,57.23
2019-04-07T08:04:46.363Z,57.54
2019-04-07T08:07:16.660Z,56.92
2019-04-07T08:09:45.785Z,56.08
2019-04-07T08:12:15.246Z,55.16
2019-04-07T08:14:50.307Z,54.85
2019-04-07T08:17:15.540Z,54.71
2019-04-07T08:19:45.609Z,55.52
2019-04-07T08:22:26.433Z,54.89
2019-04-07T08:24:49.611Z,55.07
2019-04-07T08:27:17.678Z,54.85
2019-04-07T08:29:47.427Z,54.07
2019-04-07T08:32:16.673Z,53.90
2019-04-07T08:34:45.967Z,54.11
2019-04-07T08:37:16.169Z,53.61
2019-04-07T08:39:45.345Z,53.91
2019-04-07T08:42:18.596Z,53.66
2019-04-07T08:44:46.268Z,54.40
2019-04-07T08:47:20.804Z,54.36
2019-04-07T08:49:47.089Z,54.28
2019-04-07T08:52:16.465Z,54.15
2019-04-07T08:54:48.283Z,52.90
2019-04-07T08:57:16.716Z,53.54
2019-04-07T08:59:45.782Z,52.38
2019-04-07T09:02:14.945Z,51.70
2019-04-07T09:04:49.769Z,52.70
2019-04-07T09:07:15.487Z,52.09
2019-04-07T09:09:47.519Z,51.38
2019-04-07T09:12:16.157Z,51.21
2019-04-07T09:14:45.652Z,50.82
2019-04-07T09:17:32.089Z,50.75
2019-04-07T09:20:09.116Z,50.22
2019-04-07T09:22:44.791Z,50.85
2019-04-07T09:25:23.611Z,49.35
2019-04-07T09:28:14.433Z,48.68
2019-04-07T09:31:10.820Z,48.01
2019-04-07T09:34:04.406Z,48.45
2019-04-07T09:37:00.234Z,47.48
2019-04-07T09:39:57.010Z,46.11
2019-04-07T09:42:33.989Z,45.70
2019-04-07T09:45:40.207Z,44.70
2019-04-07T09:48:21.156Z,44.50
2019-04-07T09:51:15.394Z,44.24
2019-04-07T09:54:04.125Z,43.43
2019-04-07T09:57:10.791Z,42.82
2019-04-07T10:00:12.646Z,42.09
2019-04-07T10:03:11.674Z,42.50
2019-04-07T10:05:55.466Z,42.37
2019-04-07T10:08:32.699Z,42.33
2019-04-07T10:11:22.042Z,42.30
2019-04-07T10:14:08.453Z,41.99
2019-04-07T10:17:14.913Z,42.19
2019-04-07T10:20:02.355Z,41.64
2019-04-07T10:22:54.191Z,42.03
2019-04-07T10:25:45.546Z,41.48
2019-04-07T10:28:43.108Z,41.03
2019-04-07T10:31:49.466Z,40.42
2019-04-07T10:34:31.015Z,40.51
2019-04-07T10:37:19.084Z,39.96
2019-04-07T10:39:57.339Z,40.20
2019-04-07T10:42:47.313Z,39.56
2019-04-07T10:45:26.984Z,38.50
2019-04-07T10:48:13.535Z,38.45
2019-04-07T10:51:19.838Z,37.96
2019-04-07T10:54:08.062Z,37.29
2019-04-07T10:56:56.427Z,37.13
2019-04-07T10:59:40.246Z,35.47
2019-04-07T11:02:27.720Z,35.46
2019-04-07T11:05:11.937Z,34.50
2019-04-07T11:07:59.100Z,34.01
2019-04-07T11:10:41.923Z,33.56
2019-04-07T11:13:23.869Z,33.08
2019-04-07T11:16:18.609Z,32.76
2019-04-07T11:19:09.796Z,32.84
2019-04-07T11:22:05.670Z,32.11
2019-04-07T11:24:59.182Z,31.70
2019-04-07T11:27:39.499Z,32.53
2019-04-07T11:30:14.668Z,31.34
2019-04-07T11:33:05.498Z,31.52
2019-04-07T11:35:43.301Z,31.08
2019-04-07T11:38:38.534Z,30.52
2019-04-07T11:41:28.915Z,30.36
2019-04-07T11:44:07.483Z,29.62
2019-04-07T11:46:56.275Z,28.82
2019-04-07T11:49:51.592Z,29.93
2019-04-07T11:52:49.427Z,29.33
2019-04-07T11:55:36.693Z,29.41
2019-04-07T11:58:22.285Z,30.07
2019-04-07T12:01:03.625Z,30.42
2019-04-07T12:03:46.446Z,30.45
2019-04-07T12:06:42.098Z,30.79
2019-04-07T12:09:21.520Z,31.14
2019-04-07T12:12:16.933Z,31.69
2019-04-07T12:15:02.892Z,32.45
2019-04-07T12:17:43.574Z,32.70
2019-04-07T12:20:25.654Z,32.72
2019-04-07T12:23:15.917Z,33.07
2019-04-07T12:26:09.833Z,33.57
2019-04-07T12:29:04.779Z,33.14
2019-04-07T12:31:52.146Z,33.95
2019-04-07T12:34:43.905Z,33.39
2019-04-07T12:37:43.750Z,32.19
2019-04-07T12:40:32.274Z,31.82
2019-04-07T12:43:18.542Z,31.69
2019-04-07T12:45:56.225Z,31.66
2019-04-07T12:48:32.010Z,31.77
2019-04-07T12:51:19.850Z,31.93
2019-04-07T12:54:09.513Z,31.91
2019-04-07T12:56:58.275Z,32.27
2019-04-07T12:59:59.580Z,31.22
2019-04-07T13:02:47.656Z,30.30
2019-04-07T13:05:25.053Z,29.60
2019-04-07T13:08:22.534Z,29.38
2019-04-07T13:11:09.651Z,29.77
2019-04-07T13:14:14.080Z,29.17
2019-04-07T13:17:02.764Z,28.15
2019-04-07T13:19:54.297Z,27.44
2019-04-07T13:22:43.752Z,26.82
2019-04-07T13:25:32.417Z,26.46
2019-04-07T13:28:09.665Z,25.73
2019-04-07T13:31:15.834Z,24.88
2019-04-07T13:34:03.184Z,24.00
2019-04-07T13:36:53.319Z,23.04
2019-04-07T13:39:44.854Z,22.42
2019-04-07T13:42:47.606Z,21.97
2019-04-07T13:45:35.663Z,21.54
2019-04-07T13:48:17.685Z,20.70
2019-04-07T13:51:13.421Z,20.45
2019-04-07T13:54:05.448Z,20.00
2019-04-07T13:57:05.659Z,19.58
2019-04-07T13:59:52.053Z,19.81
2019-04-07T14:02:43.220Z,19.84
2019-04-07T14:05:40.082Z,19.41
2019-04-07T14:08:36.135Z,19.31
2019-04-07T14:11:25.066Z,18.70
2019-04-07T14:14:28.119Z,18.29
2019-04-07T14:17:28.313Z,18.01
2019-04-07T14:20:25.705Z,17.65
2019-04-07T14:23:24.032Z,17.76
2019-04-07T14:26:12.444Z,17.41
2019-04-07T14:29:06.492Z,17.17
2019-04-07T14:31:52.420Z,17.78
2019-04-07T14:34:41.356Z,18.63
2019-04-07T14:37:18.568Z,18.21
2019-04-07T14:40:10.723Z,17.82
2019-04-07T14:42:56.111Z,18.38
2019-04-07T14:45:40.638Z,18.37
2019-04-07T14:48:17.421Z,19.13
2019-04-07T14:50:58.097Z,19.60
2019-04-07T14:54:02.879Z,20.17
2019-04-07T14:56:57.452Z,20.57
2019-04-07T14:59:48.568Z,22.31
2019-04-07T15:02:17.966Z,24.02
2019-04-07T15:05:00.315Z,25.55
2019-04-07T15:07:49.229Z,27.82
2019-04-07T15:10:22.455Z,27.87
2019-04-07T15:12:55.726Z,28.51
2019-04-07T15:15:28.347Z,29.69
2019-04-07T15:17:57.740Z,29.74
2019-04-07T15:20:28.129Z,30.05
2019-04-07T15:22:59.287Z,30.82
2019-04-07T15:25:29.639Z,31.56
2019-04-07T15:28:00.397Z,31.57
2019-04-07T15:30:31.013Z,31.90
2019-04-07T15:33:01.613Z,31.75
2019-04-07T15:35:31.135Z,34.23
2019-04-07T15:38:01.270Z,34.18
2019-04-07T15:40:35.017Z,34.28
2019-04-07T15:43:05.696Z,34.27
2019-04-07T15:45:33.664Z,35.05
2019-04-07T15:48:05.939Z,35.92
2019-04-07T15:50:36.011Z,37.29
2019-04-07T15:53:06.121Z,38.14
2019-04-07T15:55:46.706Z,37.78
2019-04-07T15:58:06.252Z,37.08
2019-04-07T16:00:36.163Z,36.97
2019-04-07T16:03:05.565Z,36.74
2019-04-07T16:05:41.317Z,36.61
2019-04-07T16:08:06.383Z,37.34
2019-04-07T16:10:35.968Z,37.71
2019-04-07T16:13:05.339Z,38.24
2019-04-07T16:15:35.071Z,38.24
2019-04-07T16:18:08.567Z,38.68
2019-04-07T16:20:40.481Z,39.21
2019-04-07T16:23:08.869Z,39.32
2019-04-07T16:25:40.273Z,39.61
2019-04-07T16:28:12.843Z,39.47
2019-04-07T16:30:40.748Z,39.78
2019-04-07T16:33:10.199Z,39.59
2019-04-07T16:35:39.826Z,40.54
2019-04-07T16:38:09.537Z,40.46
2019-04-07T16:40:41.314Z,40.51
2019-04-07T16:43:15.111Z,40.07
2019-04-07T16:45:44.153Z,39.87
2019-04-07T16:48:11.729Z,39.88
2019-04-07T16:50:40.867Z,40.29
2019-04-07T16:53:11.788Z,40.28
2019-04-07T16:55:41.774Z,41.01
2019-04-07T16:58:11.815Z,41.07
2019-04-07T17:00:41.787Z,40.46
2019-04-07T17:03:11.603Z,41.00
2019-04-07T17:05:41.110Z,41.18
2019-04-07T17:08:10.204Z,41.24
2019-04-07T17:10:39.341Z,41.51
2019-04-07T17:13:17.780Z,41.96
2019-04-07T17:15:41.788Z,42.03
2019-04-07T17:18:34.427Z,41.87
2019-04-07T17:21:06.444Z,41.86
2019-04-07T17:23:34.432Z,42.01
2019-04-07T17:26:06.904Z,41.95
2019-04-07T17:28:37.771Z,41.83
2019-04-07T17:31:11.640Z,40.90
2019-04-07T17:33:41.553Z,40.82
2019-04-07T17:36:16.203Z,40.56
2019-04-07T17:39:13.258Z,41.14
2019-04-07T17:41:43.525Z,41.17
2019-04-07T17:44:31.821Z,41.21
2019-04-07T17:47:13.784Z,40.35
2019-04-07T17:50:04.879Z,41.05
2019-04-07T17:52:58.688Z,40.29
2019-04-07T17:55:47.987Z,39.92
2019-04-07T17:58:42.622Z,40.46
2019-04-07T18:01:37.825Z,40.28
2019-04-07T18:04:28.967Z,39.96
2019-04-07T18:07:36.170Z,39.92
2019-04-07T18:10:22.561Z,41.02
2019-04-07T18:13:09.116Z,40.97
2019-04-07T18:15:48.771Z,43.67
2019-04-07T18:18:41.282Z,43.16
2019-04-07T18:21:47.811Z,43.13
2019-04-07T18:24:37.762Z,44.27
2019-04-07T18:27:21.112Z,44.89
2019-04-07T18:30:21.553Z,45.99
2019-04-07T18:33:15.608Z,46.63
2019-04-07T18:36:12.023Z,47.22
2019-04-07T18:39:00.540Z,46.74
2019-04-07T18:42:10.655Z,47.10
2019-04-07T18:44:46.730Z,47.33
2019-04-07T18:47:35.025Z,47.44
2019-04-07T18:50:36.969Z,47.89
2019-04-07T18:53:17.824Z,47.78
2019-04-07T18:55:57.930Z,48.99
2019-04-07T18:58:51.663Z,47.98
2019-04-07T19:01:40.980Z,49.19
2019-04-07T19:04:17.348Z,49.91
2019-04-07T19:06:56.519Z,49.45
2019-04-07T19:10:05.119Z,50.04
2019-04-07T19:12:43.179Z,49.60
2019-04-07T19:15:36.567Z,50.14
2019-04-07T19:18:26.016Z,49.55
2019-04-07T19:21:14.042Z,49.21
2019-04-07T19:24:00.878Z,49.26
2019-04-07T19:26:46.457Z,51.35
2019-04-07T19:29:41.262Z,51.37
2019-04-07T19:32:39.982Z,53.04
2019-04-07T19:35:36.421Z,53.83
2019-04-07T19:38:12.593Z,53.63
2019-04-07T19:41:00.371Z,53.56
2019-04-07T19:44:02.855Z,54.77
2019-04-07T19:46:44.211Z,55.40
2019-04-07T19:49:34.708Z,55.74
2019-04-07T19:52:23.025Z,56.01
2019-04-07T19:55:14.339Z,56.20
2019-04-07T19:58:05.708Z,55.95
2019-04-07T20:00:51.935Z,57.32
2019-04-07T20:03:39.858Z,57.25
2019-04-07T20:06:16.986Z,56.62
2019-04-07T20:09:11.186Z,56.72
2019-04-07T20:12:02.853Z,56.75
2019-04-07T20:14:58.622Z,57.88
2019-04-07T20:17:56.501Z,57.17
2019-04-07T20:20:47.040Z,56.98
2019-04-07T20:23:32.875Z,57.37
2019-04-07T20:26:22.234Z,57.03
2019-04-07T20:29:06.951Z,55.92
2019-04-07T20:31:47.322Z,55.13
2019-04-07T20:34:51.238Z,54.76
2019-04-07T20:37:34.404Z,55.37
2019-04-07T20:40:19.782Z,54.94
2019-04-07T20:42:58.438Z,55.03
2019-04-07T20:45:53.740Z,56.27
2019-04-07T20:48:54.190Z,57.11
2019-04-07T20:52:03.514Z,58.14
2019-04-07T20:54:50.903Z,60.60
2019-04-07T20:57:30.941Z,60.39
2019-04-07T21:00:20.712Z,60.78
2019-04-07T21:03:17.163Z,61.38
2019-04-07T21:06:00.575Z,60.67
2019-04-07T21:08:44.106Z,60.47
2019-04-07T21:11:20.488Z,61.47
2019-04-07T21:14:09.266Z,60.93
2019-04-07T21:16:59.314Z,60.40
2019-04-07T21:19:36.481Z,60.26
2019-04-07T21:22:15.516Z,59.98
2019-04-07T21:25:02.166Z,60.67
2019-04-07T21:27:40.849Z,61.03
2019-04-07T21:30:29.322Z,60.98
2019-04-07T21:33:16.109Z,60.79
2019-04-07T21:36:17.084Z,62.36
2019-04-07T21:39:08.334Z,63.01
2019-04-07T21:41:48.358Z,63.32
2019-04-07T21:44:38.696Z,64.11
2019-04-07T21:47:29.772Z,64.23
2019-04-07T21:50:15.140Z,63.93
2019-04-07T21:53:03.272Z,63.54
2019-04-07T21:55:45.814Z,64.02
2019-04-07T21:58:45.890Z,63.94
2019-04-07T22:01:49.495Z,62.91
2019-04-07T22:04:57.100Z,63.00
2019-04-07T22:07:37.537Z,62.90
2019-04-07T22:10:08.268Z,63.98
2019-04-07T22:12:38.037Z,64.59
2019-04-07T22:15:11.663Z,65.28
2019-04-07T22:17:39.457Z,66.86
2019-04-07T22:20:10.496Z,64.81
2019-04-07T22:22:39.675Z,64.37
2019-04-07T22:25:10.115Z,64.77
2019-04-07T22:27:39.908Z,64.42
2019-04-07T22:30:14.457Z,64.19
2019-04-07T22:32:43.529Z,64.21
2019-04-07T22:35:13.125Z,63.79
2019-04-07T22:37:42.866Z,63.49
2019-04-07T22:40:14.947Z,63.75
2019-04-07T22:42:45.972Z,63.77
2019-04-07T22:45:15.242Z,64.26
2019-04-07T22:47:44.573Z,64.07
2019-04-07T22:50:15.080Z,63.73
2019-04-07T22:52:47.317Z,63.52
2019-04-07T22:55:14.960Z,63.53
2019-04-07T22:57:46.042Z,63.17
2019-04-07T23:00:19.310Z,63.55
2019-04-07T23:02:48.660Z,63.73
2019-04-07T23:05:19.127Z,64.96
2019-04-07T23:07:48.416Z,65.76
2019-04-07T23:10:18.124Z,64.96
2019-04-07T23:12:47.973Z,65.34
2019-04-07T23:15:17.173Z,65.18
2019-04-07T23:17:47.223Z,65.61
2019-04-07T23:20:17.182Z,64.90
2019-04-07T23:22:46.658Z,65.41
2019-04-07T23:25:15.776Z,65.51
2019-04-07T23:27:45.744Z,65.29
2019-04-07T23:30:15.209Z,66.01
2019-04-07T23:32:44.294Z,66.69
2019-04-07T23:35:14.529Z,65.99
2019-04-07T23:37:43.916Z,66.04
2019-04-07T23:40:13.932Z,66.41
2019-04-07T23:42:43.122Z,66.63
2019-04-07T23:45:12.702Z,67.08
2019-04-07T23:47:42.738Z,67.75
2019-04-07T23:50:12.253Z,66.89
2019-04-07T23:52:41.590Z,66.54
2019-04-07T23:55:10.766Z,66.23
2019-04-07T23:57:40.240Z,66.48
